Time;durP1;ratioP1;P1;durP2;ratioP2;P2;SDS_P1;SDS_P2;PMS_P1;PMS_P2;Temp;Humidity;BMP_temperature;BMP_pressure;BME280_temperature;BME280_humidity;BME280_pressure;Samples;Min_cycle;Max_cycle;Signal;HPM_P1;HPM_P2
2023/11/01 00:01:04;;;;;;;3.30;1.35;;;11.00;99.90;;;;;;5028140;28;20229;-81
2023/11/01 00:03:31;;;;;;;1.83;1.67;;;11.00;99.90;;;;;;5033826;28;20290;-82
2023/11/01 00:05:59;;;;;;;1.42;1.33;;;11.00;99.90;;;;;;5034885;28;20235;-82
2023/11/01 00:08:26;;;;;;;5.40;1.30;;;11.00;99.90;;;;;;5035231;28;20314;-82
2023/11/01 00:10:53;;;;;;;1.23;1.02;;;11.00;99.90;;;;;;5034938;28;20233;-82
2023/11/01 00:13:21;;;;;;;1.60;1.20;;;11.00;99.90;;;;;;5034608;28;20221;-82
2023/11/01 00:15:48;;;;;;;4.00;3.20;;;11.00;99.90;;;;;;5034406;28;20315;-82
2023/11/01 00:18:15;;;;;;;4.32;2.33;;;11.00;99.90;;;;;;5035056;28;20218;-80
2023/11/01 00:20:42;;;;;;;4.20;2.20;;;11.00;99.90;;;;;;5034730;28;20355;-81
2023/11/01 00:23:08;;;;;;;2.10;1.90;;;11.00;99.90;;;;;;5034199;28;20275;-80
2023/11/01 00:25:35;;;;;;;2.20;2.00;;;11.00;99.90;;;;;;5034338;28;20225;-82
2023/11/01 00:28:02;;;;;;;2.80;2.13;;;11.00;99.90;;;;;;5034741;28;20232;-82
2023/11/01 00:30:37;;;;;;;3.30;1.88;;;11.00;99.90;;;;;;5034498;28;20221;-81
2023/11/01 00:33:04;;;;;;;1.65;1.20;;;11.00;99.90;;;;;;5034251;28;20217;-80
2023/11/01 00:35:31;;;;;;;1.40;1.30;;;11.00;99.90;;;;;;5033899;28;20612;-81
2023/11/01 00:37:58;;;;;;;2.75;1.30;;;11.00;99.90;;;;;;5033357;28;20698;-79
2023/11/01 00:40:26;;;;;;;2.25;1.23;;;11.00;99.90;;;;;;5034157;28;20249;-80
2023/11/01 00:42:53;;;;;;;2.45;1.50;;;11.00;99.90;;;;;;5033889;28;20229;-81
2023/11/01 00:45:20;;;;;;;1.65;1.25;;;11.00;99.90;;;;;;5034112;28;20308;-82
2023/11/01 00:47:48;;;;;;;3.67;3.38;;;11.00;99.90;;;;;;5033206;28;20281;-81
2023/11/01 00:50:15;;;;;;;4.10;3.72;;;11.00;99.90;;;;;;5034271;28;20300;-81
2023/11/01 00:52:44;;;;;;;3.80;2.90;;;11.10;99.90;;;;;;5016040;28;20615;-81
2023/11/01 00:55:11;;;;;;;2.42;2.22;;;11.10;99.90;;;;;;5014587;28;20222;-80
2023/11/01 00:57:38;;;;;;;2.00;1.73;;;11.10;99.90;;;;;;5014476;28;20240;-79
2023/11/01 01:00:06;;;;;;;3.15;1.90;;;11.10;99.90;;;;;;5014037;28;20300;-81
2023/11/01 01:02:33;;;;;;;2.63;1.55;;;11.10;99.90;;;;;;5014522;28;20623;-81
2023/11/01 01:05:02;;;;;;;1.63;1.27;;;11.10;99.90;;;;;;5013839;28;20284;-80
2023/11/01 01:07:29;;;;;;;2.72;2.53;;;11.10;99.90;;;;;;5013946;28;20276;-81
2023/11/01 01:09:58;;;;;;;2.13;1.50;;;11.10;99.90;;;;;;5014502;28;20256;-81
2023/11/01 01:12:26;;;;;;;1.80;1.33;;;11.00;99.90;;;;;;5013678;28;20241;-79
2023/11/01 01:14:53;;;;;;;1.40;1.10;;;11.10;99.90;;;;;;5014103;28;20230;-79
2023/11/01 01:17:20;;;;;;;1.42;1.10;;;11.10;99.90;;;;;;5026945;28;20316;-80
2023/11/01 01:19:47;;;;;;;3.25;1.35;;;11.10;99.90;;;;;;5017783;28;20229;-80
2023/11/01 01:22:16;;;;;;;4.63;0.98;;;11.10;99.90;;;;;;5017973;28;20296;-81
2023/11/01 01:24:43;;;;;;;1.65;1.23;;;11.10;99.90;;;;;;5017466;28;20234;-81
2023/11/01 01:27:10;;;;;;;2.63;1.67;;;11.10;99.90;;;;;;5018156;28;20616;-82
2023/11/01 01:29:37;;;;;;;3.75;2.75;;;11.10;99.90;;;;;;5017534;28;20230;-79
2023/11/01 01:32:04;;;;;;;7.03;3.75;;;11.10;99.90;;;;;;5017042;28;20252;-80
2023/11/01 01:34:31;;;;;;;2.25;1.88;;;11.10;99.90;;;;;;5017203;28;20420;-81
2023/11/01 01:36:59;;;;;;;1.65;1.00;;;11.00;99.90;;;;;;5030278;28;20221;-81
2023/11/01 01:39:33;;;;;;;1.10;1.00;;;11.10;99.90;;;;;;5041630;28;20592;-79
2023/11/01 01:42:00;;;;;;;3.50;1.58;;;11.10;99.90;;;;;;5036915;28;20228;-79
2023/11/01 01:44:27;;;;;;;3.30;2.10;;;11.10;99.90;;;;;;5037090;28;20229;-79
2023/11/01 01:46:56;;;;;;;1.20;1.02;;;11.10;99.90;;;;;;5037040;28;20222;-80
2023/11/01 01:49:23;;;;;;;2.15;1.30;;;11.10;99.90;;;;;;5037409;28;20588;-81
2023/11/01 01:51:50;;;;;;;2.33;1.10;;;11.10;99.90;;;;;;5037850;28;20236;-80
2023/11/01 01:54:17;;;;;;;1.10;1.00;;;11.10;99.90;;;;;;5037488;28;20221;-81
2023/11/01 01:56:46;;;;;;;1.25;1.15;;;11.10;99.90;;;;;;5036480;28;20231;-82
2023/11/01 01:59:13;;;;;;;1.90;1.60;;;11.20;99.90;;;;;;5035335;28;20225;-82
2023/11/01 02:01:43;;;;;;;1.38;1.20;;;11.10;99.90;;;;;;5035902;28;20229;-79
2023/11/01 02:04:10;;;;;;;2.03;1.25;;;11.20;99.90;;;;;;5036767;28;20614;-81
2023/11/01 02:06:37;;;;;;;5.47;1.23;;;11.20;99.90;;;;;;5036455;28;20551;-82
2023/11/01 02:09:05;;;;;;;2.80;1.27;;;11.20;99.90;;;;;;5036405;28;20287;-79
2023/11/01 02:11:32;;;;;;;1.10;1.00;;;11.20;99.90;;;;;;5036767;28;20244;-78
2023/11/01 02:14:00;;;;;;;2.90;1.20;;;11.20;99.90;;;;;;5036219;28;20687;-79
2023/11/01 02:16:27;;;;;;;1.20;1.08;;;11.10;99.90;;;;;;5036792;28;20237;-79
2023/11/01 02:18:54;;;;;;;1.60;1.50;;;11.10;99.90;;;;;;5036198;28;20245;-83
2023/11/01 02:21:21;;;;;;;2.20;1.30;;;11.10;99.90;;;;;;5036707;28;20689;-83
2023/11/01 02:23:50;;;;;;;2.42;1.77;;;11.20;99.90;;;;;;5036129;28;20253;-84
2023/11/01 02:26:17;;;;;;;1.50;1.13;;;11.10;99.90;;;;;;5036228;28;20240;-84
2023/11/01 02:28:44;;;;;;;3.65;1.60;;;11.10;99.90;;;;;;5042040;28;20765;-80
2023/11/01 02:31:17;;;;;;;3.65;2.13;;;11.10;99.90;;;;;;5036860;28;20227;-80
2023/11/01 02:33:44;;;;;;;2.60;1.35;;;11.10;99.90;;;;;;5034856;28;20228;-80
2023/11/01 02:36:11;;;;;;;2.10;1.15;;;11.10;99.90;;;;;;5036426;28;20312;-84
2023/11/01 02:38:38;;;;;;;1.50;1.02;;;11.10;99.90;;;;;;5036173;28;20244;-80
2023/11/01 02:41:07;;;;;;;1.10;1.00;;;11.20;99.90;;;;;;5026836;28;20236;-79
2023/11/01 02:43:33;;;;;;;1.20;0.90;;;11.20;99.90;;;;;;5035320;28;20279;-83
2023/11/01 02:46:03;;;;;;;2.08;1.00;;;11.20;99.90;;;;;;5035472;28;20285;-83
2023/11/01 02:48:30;;;;;;;2.10;1.90;;;11.20;99.90;;;;;;5036048;28;20221;-83
2023/11/01 02:50:57;;;;;;;2.00;1.80;;;11.20;99.90;;;;;;5035683;28;20287;-83
2023/11/01 02:53:24;;;;;;;1.60;1.10;;;11.20;99.90;;;;;;5035373;28;20225;-83
2023/11/01 02:55:51;;;;;;;2.53;1.27;;;11.20;99.90;;;;;;5035531;28;20229;-84
2023/11/01 02:58:23;;;;;;;1.42;1.13;;;11.20;99.90;;;;;;5035804;28;20280;-83
2023/11/01 03:00:53;;;;;;;1.13;1.02;;;11.20;99.90;;;;;;5035263;28;20217;-80
2023/11/01 03:03:19;;;;;;;2.22;1.02;;;11.30;99.90;;;;;;5035894;28;20252;-80
2023/11/01 03:05:46;;;;;;;3.40;1.10;;;11.30;99.90;;;;;;5035652;28;20252;-83
2023/11/01 03:08:14;;;;;;;2.10;1.90;;;11.30;99.90;;;;;;5034966;28;20223;-83
2023/11/01 03:10:41;;;;;;;2.53;1.25;;;11.30;99.90;;;;;;5035583;28;20351;-80
2023/11/01 03:13:08;;;;;;;2.20;1.00;;;11.30;99.90;;;;;;5034720;28;20221;-80
2023/11/01 03:15:36;;;;;;;3.45;1.52;;;11.30;99.90;;;;;;5035202;28;20316;-80
2023/11/01 03:18:04;;;;;;;1.95;1.85;;;11.30;99.90;;;;;;5035126;28;20225;-79
2023/11/01 03:20:33;;;;;;;4.00;2.78;;;11.30;99.90;;;;;;5036500;28;20564;-83
2023/11/01 03:23:00;;;;;;;5.85;4.13;;;11.30;99.90;;;;;;5040715;28;20610;-80
2023/11/01 03:25:27;;;;;;;2.00;1.63;;;11.30;99.90;;;;;;5028601;28;20307;-79
2023/11/01 03:27:54;;;;;;;3.25;1.23;;;11.30;99.90;;;;;;5044252;28;20307;-83
2023/11/01 03:30:22;;;;;;;1.80;1.33;;;11.30;99.90;;;;;;5042235;28;20217;-83
2023/11/01 03:32:50;;;;;;;2.15;1.60;;;11.30;99.90;;;;;;5035182;28;20265;-83
2023/11/01 03:35:20;;;;;;;2.30;1.45;;;11.20;99.90;;;;;;5034874;28;20671;-84
2023/11/01 03:37:47;;;;;;;1.85;1.08;;;11.20;99.90;;;;;;5025650;28;20692;-83
2023/11/01 03:40:18;;;;;;;2.30;1.55;;;11.20;99.90;;;;;;5033078;28;20248;-80
2023/11/01 03:42:45;;;;;;;4.97;3.78;;;11.30;99.90;;;;;;5040633;28;20252;-83
2023/11/01 03:45:24;;;;;;;;;;;;;;;;;;;;;
2023/11/01 03:47:53;;;;;;;4.30;1.83;;;11.20;99.90;;;;;;5034584;28;20694;-83
2023/11/01 03:50:20;;;;;;;1.95;1.05;;;11.20;99.90;;;;;;5023547;28;20249;-83
2023/11/01 03:52:47;;;;;;;1.25;1.00;;;11.20;99.90;;;;;;5035089;28;20217;-82
2023/11/01 03:55:17;;;;;;;5.53;1.30;;;11.20;99.90;;;;;;5034623;28;20751;-84
2023/11/01 03:57:44;;;;;;;1.65;1.45;;;11.20;99.90;;;;;;5034443;28;20287;-79
2023/11/01 04:00:20;;;;;;;2.67;1.90;;;11.20;99.90;;;;;;5034150;28;20305;-83
2023/11/01 04:02:51;;;;;;;2.65;1.50;;;11.20;99.90;;;;;;5031572;28;20286;-80
2023/11/01 04:05:19;;;;;;;5.53;1.60;;;11.20;99.90;;;;;;5035400;28;20236;-83
2023/11/01 04:07:50;;;;;;;4.30;1.00;;;11.20;99.90;;;;;;5034280;28;20231;-80
2023/11/01 04:10:18;;;;;;;2.10;1.50;;;11.20;99.90;;;;;;5042782;28;20226;-79
2023/11/01 04:12:45;;;;;;;4.18;1.33;;;11.20;99.90;;;;;;5034906;28;20252;-85
2023/11/01 04:15:12;;;;;;;2.05;1.67;;;11.20;99.90;;;;;;5025621;28;20229;-79
2023/11/01 04:17:39;;;;;;;1.85;1.42;;;11.20;99.90;;;;;;5035772;28;20635;-79
2023/11/01 04:20:10;;;;;;;1.35;1.23;;;11.10;99.90;;;;;;5034116;28;20222;-80
2023/11/01 04:22:39;;;;;;;1.77;1.58;;;11.20;99.90;;;;;;5034658;28;20249;-80
2023/11/01 04:25:10;;;;;;;1.88;1.40;;;11.20;99.90;;;;;;5034354;28;20229;-79
2023/11/01 04:27:39;;;;;;;1.45;1.13;;;11.20;99.90;;;;;;5035046;28;20613;-79
2023/11/01 04:30:08;;;;;;;2.35;1.00;;;11.10;99.90;;;;;;5034709;28;20221;-80
2023/11/01 04:32:38;;;;;;;1.25;1.15;;;11.10;99.90;;;;;;5035029;28;20229;-83
2023/11/01 04:35:09;;;;;;;1.70;1.33;;;11.10;99.90;;;;;;5039636;28;20244;-83
2023/11/01 04:37:37;;;;;;;1.60;1.10;;;11.10;99.90;;;;;;5033678;28;20734;-79
2023/11/01 04:40:06;;;;;;;3.38;1.17;;;11.10;99.90;;;;;;5033962;28;20221;-79
2023/11/01 04:42:33;;;;;;;2.28;1.15;;;11.10;99.90;;;;;;5033795;28;20603;-79
2023/11/01 04:45:00;;;;;;;1.33;1.15;;;11.00;99.90;;;;;;5033846;28;20604;-79
2023/11/01 04:47:27;;;;;;;1.30;1.00;;;11.00;99.90;;;;;;5030862;28;20239;-83
2023/11/01 04:49:54;;;;;;;3.22;1.10;;;11.10;99.90;;;;;;5039712;28;20244;-78
2023/11/01 04:52:21;;;;;;;4.25;1.55;;;11.10;99.90;;;;;;5033398;28;20267;-78
2023/11/01 04:54:47;;;;;;;1.38;1.25;;;11.10;99.90;;;;;;5033142;28;20256;-84
2023/11/01 04:57:16;;;;;;;3.35;1.20;;;11.10;99.90;;;;;;5033504;28;20272;-80
2023/11/01 04:59:43;;;;;;;1.27;1.00;;;11.10;99.90;;;;;;5033420;28;20290;-79
2023/11/01 05:02:10;;;;;;;1.50;0.90;;;11.20;99.90;;;;;;5033454;28;20232;-79
2023/11/01 05:04:37;;;;;;;2.30;1.00;;;11.10;99.90;;;;;;5033395;28;20249;-83
2023/11/01 05:07:04;;;;;;;1.70;1.48;;;11.10;99.90;;;;;;5034721;28;20233;-83
2023/11/01 05:09:31;;;;;;;2.03;1.13;;;11.20;99.90;;;;;;5033139;28;20235;-83
2023/11/01 05:11:58;;;;;;;1.70;1.38;;;11.20;99.90;;;;;;5034087;28;20240;-79
2023/11/01 05:14:26;;;;;;;1.90;1.30;;;11.20;99.90;;;;;;5033530;28;20300;-79
2023/11/01 05:16:56;;;;;;;2.08;1.45;;;11.20;99.90;;;;;;5026692;28;20300;-83
2023/11/01 05:19:23;;;;;;;1.73;1.35;;;11.20;99.90;;;;;;5036713;28;20622;-83
2023/11/01 05:21:50;;;;;;;2.17;1.27;;;11.20;99.90;;;;;;5036230;28;20308;-82
2023/11/01 05:24:19;;;;;;;1.83;1.30;;;11.20;99.90;;;;;;5036459;28;20222;-83
2023/11/01 05:26:46;;;;;;;2.20;1.35;;;11.20;99.90;;;;;;5036736;28;20360;-78
2023/11/01 05:29:16;;;;;;;2.05;1.50;;;11.20;99.90;;;;;;5035546;28;20224;-79
2023/11/01 05:31:44;;;;;;;2.88;1.52;;;11.20;99.90;;;;;;5035706;28;20225;-80
2023/11/01 05:34:11;;;;;;;3.95;1.88;;;11.20;99.90;;;;;;5036018;28;20225;-83
2023/11/01 05:36:39;;;;;;;2.00;1.38;;;11.20;99.90;;;;;;5032564;28;20248;-79
2023/11/01 05:39:07;;;;;;;3.30;1.10;;;11.20;99.90;;;;;;5036642;28;20229;-83
2023/11/01 05:41:34;;;;;;;2.83;1.67;;;11.20;99.90;;;;;;5035662;28;20226;-83
2023/11/01 05:44:02;;;;;;;2.22;2.03;;;11.10;99.90;;;;;;5036030;28;20296;-84
2023/11/01 05:46:29;;;;;;;1.70;1.30;;;11.20;99.90;;;;;;5036063;28;20272;-83
2023/11/01 05:48:57;;;;;;;1.45;1.35;;;11.20;99.90;;;;;;5035124;28;20639;-79
2023/11/01 05:51:24;;;;;;;1.40;1.30;;;11.20;99.90;;;;;;5034981;28;20573;-80
2023/11/01 05:53:51;;;;;;;2.17;1.58;;;11.20;99.90;;;;;;5034563;28;20222;-79
2023/11/01 05:56:19;;;;;;;2.63;1.42;;;11.20;99.90;;;;;;5034355;28;20735;-83
2023/11/01 05:58:46;;;;;;;1.38;1.20;;;11.20;99.90;;;;;;5034990;28;20644;-83
2023/11/01 06:01:13;;;;;;;1.45;1.35;;;11.20;99.90;;;;;;5034683;28;20617;-83
2023/11/01 06:03:40;;;;;;;2.20;1.60;;;11.20;99.90;;;;;;5038046;28;20287;-83
2023/11/01 06:06:08;;;;;;;1.70;1.45;;;11.20;99.90;;;;;;5038184;28;20272;-83
2023/11/01 06:08:35;;;;;;;2.15;1.50;;;11.20;99.90;;;;;;5037548;28;20226;-83
2023/11/01 06:11:02;;;;;;;4.20;1.25;;;11.30;99.90;;;;;;5037983;28;20217;-83
2023/11/01 06:13:29;;;;;;;1.60;1.38;;;11.20;99.90;;;;;;5038238;28;20313;-83
2023/11/01 06:15:59;;;;;;;2.17;1.33;;;11.30;99.90;;;;;;5036499;28;20225;-79
2023/11/01 06:18:26;;;;;;;2.65;1.70;;;11.30;99.90;;;;;;5036565;28;20277;-82
2023/11/01 06:20:53;;;;;;;1.58;1.48;;;11.20;99.90;;;;;;5037109;28;20698;-83
2023/11/01 06:23:24;;;;;;;1.60;1.50;;;11.20;99.90;;;;;;5036939;28;20741;-83
2023/11/01 06:25:51;;;;;;;2.67;1.60;;;11.30;99.90;;;;;;5036769;28;20240;-83
2023/11/01 06:28:19;;;;;;;4.35;1.50;;;11.30;99.90;;;;;;5036512;28;20727;-82
2023/11/01 06:30:49;;;;;;;2.53;1.50;;;11.20;99.90;;;;;;5035670;28;20230;-83
2023/11/01 06:33:16;;;;;;;3.33;1.73;;;11.20;99.90;;;;;;5036012;28;20312;-79
2023/11/01 06:35:43;;;;;;;2.72;1.63;;;11.10;99.90;;;;;;5035097;28;20225;-79
2023/11/01 06:38:10;;;;;;;3.95;1.70;;;11.10;99.90;;;;;;5035446;28;20309;-78
2023/11/01 06:40:38;;;;;;;3.83;2.30;;;11.10;99.90;;;;;;5035131;28;20236;-78
2023/11/01 06:43:22;;;;;;;2.47;1.30;;;11.10;99.90;;;;;;5036013;28;20259;-79
2023/11/01 06:45:49;;;;;;;2.67;1.45;;;11.20;99.90;;;;;;5034621;28;20537;-82
2023/11/01 06:48:16;;;;;;;2.28;1.77;;;11.20;99.90;;;;;;5035157;28;20221;-79
2023/11/01 06:50:43;;;;;;;4.47;2.10;;;11.20;99.90;;;;;;5035149;28;20239;-79
2023/11/01 06:53:10;;;;;;;2.90;1.40;;;11.20;99.90;;;;;;5035655;28;20217;-83
2023/11/01 06:55:38;;;;;;;2.05;1.40;;;11.20;99.90;;;;;;5034957;28;20316;-82
2023/11/01 06:58:10;;;;;;;4.13;1.70;;;11.20;99.90;;;;;;5035312;28;20225;-83
2023/11/01 07:01:17;;;;;;;2.00;1.80;;;11.30;99.90;;;;;;5042586;28;20755;-83
2023/11/01 07:03:44;;;;;;;2.55;1.30;;;11.30;99.90;;;;;;5034811;28;20217;-82
2023/11/01 07:06:11;;;;;;;2.60;1.55;;;11.30;99.90;;;;;;5037064;28;20603;-82
2023/11/01 07:08:42;;;;;;;4.35;1.83;;;11.30;99.90;;;;;;5036410;28;20248;-83
2023/11/01 07:11:14;;;;;;;3.38;1.90;;;11.20;99.90;;;;;;5036335;28;20221;-79
2023/11/01 07:13:41;;;;;;;4.03;1.52;;;11.20;99.90;;;;;;5035170;28;20316;-83
2023/11/01 07:16:08;;;;;;;2.08;1.65;;;11.20;99.90;;;;;;5035557;28;20230;-83
2023/11/01 07:18:38;;;;;;;2.50;1.85;;;11.30;99.90;;;;;;5034916;28;20314;-82
2023/11/01 07:21:06;;;;;;;2.00;1.60;;;11.30;99.90;;;;;;5035530;28;20300;-83
2023/11/01 07:24:08;;;;;;;1.92;1.45;;;11.30;99.90;;;;;;5034508;28;20229;-82
2023/11/01 07:26:37;;;;;;;2.10;1.40;;;11.40;99.90;;;;;;5034451;28;20233;-79
2023/11/01 07:29:05;;;;;;;4.75;2.15;;;11.40;99.90;;;;;;5034803;28;20225;-79
2023/11/01 07:31:33;;;;;;;2.72;1.83;;;11.40;99.90;;;;;;5034394;28;20573;-79
2023/11/01 07:34:00;;;;;;;1.98;1.83;;;11.40;99.90;;;;;;5034722;28;20228;-80
2023/11/01 07:36:33;;;;;;;5.00;2.20;;;11.40;99.90;;;;;;5034233;28;20225;-80
2023/11/01 07:39:00;;;;;;;3.38;2.28;;;11.40;99.90;;;;;;5034461;28;20279;-80
2023/11/01 07:41:27;;;;;;;4.25;1.85;;;11.50;99.90;;;;;;5033685;28;20303;-80
2023/11/01 07:43:55;;;;;;;4.75;2.40;;;11.50;99.90;;;;;;5035432;28;20312;-79
2023/11/01 07:46:22;;;;;;;2.33;2.05;;;11.50;99.90;;;;;;5035189;28;20229;-83
2023/11/01 07:48:49;;;;;;;7.30;4.72;;;11.60;99.90;;;;;;5034532;28;20223;-83
2023/11/01 07:51:16;;;;;;;3.35;2.20;;;11.60;99.90;;;;;;5036459;28;20681;-83
2023/11/01 07:53:43;;;;;;;2.53;1.95;;;11.60;99.90;;;;;;5033952;28;20236;-79
2023/11/01 07:56:10;;;;;;;4.30;2.17;;;11.60;99.90;;;;;;5034148;28;20540;-79
2023/11/01 07:58:37;;;;;;;2.97;2.30;;;11.70;99.90;;;;;;5033571;28;20249;-78
2023/11/01 08:01:06;;;;;;;3.88;2.50;;;11.70;99.90;;;;;;5034160;28;20228;-80
2023/11/01 08:03:34;;;;;;;2.88;1.90;;;11.70;99.90;;;;;;5034052;28;20236;-79
2023/11/01 08:06:01;;;;;;;4.55;2.03;;;11.60;99.90;;;;;;5033846;28;20236;-79
2023/11/01 08:08:28;;;;;;;2.15;1.73;;;11.70;99.90;;;;;;5033440;28;20348;-79
2023/11/01 08:10:55;;;;;;;3.67;2.20;;;11.70;99.90;;;;;;5034129;28;20241;-79
2023/11/01 08:13:22;;;;;;;2.80;2.00;;;11.70;99.90;;;;;;5033926;28;20312;-80
2023/11/01 08:15:49;;;;;;;6.38;2.03;;;11.80;99.90;;;;;;5034134;28;20225;-83
2023/11/01 08:18:18;;;;;;;5.03;2.30;;;11.80;99.90;;;;;;5038659;28;20217;-83
2023/11/01 08:20:45;;;;;;;4.75;2.10;;;11.80;99.90;;;;;;5035574;28;20229;-82
2023/11/01 08:23:12;;;;;;;2.90;2.33;;;11.90;99.90;;;;;;5034451;28;20217;-84
2023/11/01 08:25:39;;;;;;;4.93;2.50;;;11.80;99.90;;;;;;5033525;28;20233;-84
2023/11/01 08:28:06;;;;;;;5.70;2.60;;;11.80;99.90;;;;;;5036249;28;20574;-83
2023/11/01 08:30:33;;;;;;;3.50;2.60;;;11.80;99.90;;;;;;5034689;28;20233;-83
2023/11/01 08:33:08;;;;;;;3.17;2.88;;;11.90;99.90;;;;;;5035842;28;20797;-83
2023/11/01 08:35:46;;;;;;;3.58;2.15;;;11.90;99.90;;;;;;5038056;28;20568;-82
2023/11/01 08:38:13;;;;;;;5.55;2.22;;;11.90;99.90;;;;;;5018354;28;20235;-83
2023/11/01 08:40:40;;;;;;;4.13;2.55;;;11.90;99.90;;;;;;5048192;28;20741;-84
2023/11/01 08:43:09;;;;;;;4.13;2.75;;;12.00;99.90;;;;;;5033774;28;20283;-82
2023/11/01 08:45:36;;;;;;;3.35;2.00;;;12.00;99.90;;;;;;5033665;28;20308;-83
2023/11/01 08:48:06;;;;;;;3.00;2.33;;;12.10;99.90;;;;;;5034166;28;20691;-83
2023/11/01 08:50:33;;;;;;;6.22;4.55;;;12.10;99.90;;;;;;5034124;28;20570;-83
2023/11/01 08:53:01;;;;;;;4.80;2.50;;;12.10;99.90;;;;;;5042089;28;20227;-82
2023/11/01 08:55:32;;;;;;;3.63;2.55;;;12.20;99.90;;;;;;5033885;28;20315;-82
2023/11/01 08:57:59;;;;;;;3.80;2.97;;;12.20;99.90;;;;;;5024286;28;20229;-82
2023/11/01 09:00:26;;;;;;;3.03;2.72;;;12.20;99.90;;;;;;5033438;28;20259;-79
2023/11/01 09:02:56;;;;;;;2.95;2.65;;;12.30;99.90;;;;;;5032707;28;20232;-82
2023/11/01 09:05:23;;;;;;;3.35;2.50;;;12.30;99.90;;;;;;5034609;28;20687;-79
2023/11/01 09:07:50;;;;;;;2.35;2.15;;;12.40;99.90;;;;;;5032215;28;20271;-79
2023/11/01 09:10:18;;;;;;;2.00;1.90;;;12.50;99.90;;;;;;5033736;28;20221;-84
2023/11/01 09:12:46;;;;;;;3.22;2.97;;;12.50;99.90;;;;;;5032745;28;20275;-79
2023/11/01 09:15:13;;;;;;;2.70;2.25;;;12.50;99.90;;;;;;5033201;28;20253;-82
2023/11/01 09:17:40;;;;;;;2.50;2.30;;;12.60;99.90;;;;;;5034639;28;20619;-79
2023/11/01 09:20:10;;;;;;;5.40;2.60;;;12.70;99.90;;;;;;5032651;28;20221;-83
2023/11/01 09:22:45;;;;;;;2.90;2.60;;;12.60;99.90;;;;;;5033984;28;20297;-84
2023/11/01 09:25:15;;;;;;;4.35;3.25;;;12.70;99.90;;;;;;5025806;28;20235;-80
2023/11/01 09:27:43;;;;;;;2.30;2.10;;;12.70;99.90;;;;;;5044160;28;20227;-84
2023/11/01 09:30:11;;;;;;;5.20;2.53;;;12.80;99.90;;;;;;5032732;28;20279;-84
2023/11/01 09:32:38;;;;;;;2.78;2.47;;;12.80;99.90;;;;;;5034236;28;20472;-81
2023/11/01 09:35:11;;;;;;;5.28;2.97;;;12.90;99.90;;;;;;5032409;28;20691;-83
2023/11/01 09:37:41;;;;;;;3.58;3.25;;;12.90;99.90;;;;;;5036632;28;20309;-83
2023/11/01 09:40:27;;;;;;;3.95;3.53;;;12.90;99.90;;;;;;5038561;28;20299;-83
2023/11/01 09:42:56;;;;;;;3.63;2.90;;;12.90;99.90;;;;;;5039022;28;20252;-83
2023/11/01 09:45:30;;;;;;;5.93;3.40;;;13.00;99.90;;;;;;5031330;28;20258;-83
2023/11/01 09:47:57;;;;;;;4.18;3.78;;;13.10;99.90;;;;;;5048168;28;20691;-83
2023/11/01 09:50:24;;;;;;;4.20;3.35;;;13.10;99.90;;;;;;5038436;28;20308;-83
2023/11/01 09:52:52;;;;;;;3.20;2.90;;;13.20;99.90;;;;;;5037827;28;20256;-84
2023/11/01 09:55:19;;;;;;;5.40;4.07;;;13.20;99.90;;;;;;5035467;28;20308;-80
2023/11/01 09:57:56;;;;;;;6.13;4.63;;;13.20;99.90;;;;;;5036767;28;20222;-79
2023/11/01 10:00:25;;;;;;;7.43;3.95;;;13.30;99.90;;;;;;5036688;28;20247;-83
2023/11/01 10:03:02;;;;;;;9.10;8.10;;;13.30;99.90;;;;;;5036412;28;20561;-84
2023/11/01 10:05:31;;;;;;;5.93;5.32;;;13.40;99.90;;;;;;5036046;28;20592;-80
2023/11/01 10:07:58;;;;;;;9.53;8.40;;;13.40;99.90;;;;;;5037246;28;20233;-79
2023/11/01 10:10:25;;;;;;;14.57;11.27;;;13.50;99.90;;;;;;5037194;28;20935;-83
2023/11/01 10:12:53;;;;;;;12.32;10.35;;;13.60;99.90;;;;;;5028968;28;20468;-79
2023/11/01 10:15:21;;;;;;;13.07;11.77;;;13.70;99.90;;;;;;5035804;28;20295;-79
2023/11/01 10:17:51;;;;;;;10.43;9.43;;;13.70;99.90;;;;;;5036117;28;21051;-78
2023/11/01 10:20:23;;;;;;;9.07;8.23;;;13.80;99.90;;;;;;5035017;28;20848;-79
2023/11/01 10:22:50;;;;;;;12.27;9.37;;;13.80;99.90;;;;;;5036795;28;20548;-79
2023/11/01 10:25:19;;;;;;;6.93;5.77;;;13.90;99.90;;;;;;5033888;28;20476;-80
2023/11/01 10:27:46;;;;;;;5.43;3.90;;;13.90;99.90;;;;;;5036073;28;20468;-79
2023/11/01 10:30:19;;;;;;;4.93;4.03;;;13.90;99.90;;;;;;5037187;28;20473;-84
2023/11/01 10:32:59;;;;;;;5.07;4.63;;;14.00;99.90;;;;;;5037902;28;20797;-82
2023/11/01 10:35:27;;;;;;;5.10;4.00;;;14.00;99.90;;;;;;5062262;22;20467;-80
2023/11/01 10:38:00;;;;;;;7.10;3.23;;;14.00;99.90;;;;;;5059866;28;20470;-79
2023/11/01 10:40:29;;;;;;;4.63;4.20;;;14.10;99.90;;;;;;5057797;28;20482;-79
2023/11/01 10:42:59;;;;;;;3.70;3.40;;;14.10;99.90;;;;;;5064412;28;20446;-82
2023/11/01 10:45:26;;;;;;;3.60;3.00;;;14.20;99.90;;;;;;5053727;28;20491;-82
2023/11/01 10:47:54;;;;;;;4.20;3.10;;;14.30;99.90;;;;;;5055247;28;20471;-79
2023/11/01 10:50:24;;;;;;;4.30;3.90;;;14.40;99.90;;;;;;5054935;28;21027;-78
2023/11/01 10:52:51;;;;;;;4.07;3.67;;;14.40;99.90;;;;;;5055662;28;20528;-82
2023/11/01 10:55:20;;;;;;;5.53;2.93;;;14.50;99.90;;;;;;5055601;28;20475;-83
2023/11/01 10:57:49;;;;;;;3.57;2.50;;;14.60;99.90;;;;;;5055824;28;20467;-79
2023/11/01 11:00:21;;;;;;;3.00;2.70;;;14.60;99.90;;;;;;5054768;28;20479;-79
2023/11/01 11:02:56;;;;;;;2.33;2.13;;;14.70;99.90;;;;;;5056923;28;20499;-80
2023/11/01 11:05:31;;;;;;;3.20;2.90;;;14.70;99.90;;;;;;5058314;28;20507;-82
2023/11/01 11:07:58;;;;;;;6.13;3.70;;;14.70;99.90;;;;;;5056182;28;20559;-79
2023/11/01 11:10:26;;;;;;;3.53;2.93;;;14.80;99.90;;;;;;5055011;28;20463;-83
2023/11/01 11:13:24;;;;;;;5.80;4.20;;;14.80;99.90;;;;;;5055987;28;20463;-83
2023/11/01 11:16:02;;;;;;;5.30;3.40;;;14.80;99.90;;;;;;5055291;28;20601;-79
2023/11/01 11:18:53;;;;;;;3.33;3.00;;;14.90;99.90;;;;;;5047031;28;20485;-79
2023/11/01 11:22:02;;;;;;;4.03;3.67;;;15.00;99.90;;;;;;5055266;28;20505;-83
2023/11/01 11:24:57;;;;;;;4.53;3.63;;;15.00;99.90;;;;;;5052934;28;20468;-81
2023/11/01 11:27:48;;;;;;;3.30;2.60;;;15.00;99.90;;;;;;5054917;28;20538;-82
2023/11/01 11:30:15;;;;;;;4.53;2.30;;;15.00;99.90;;;;;;5045045;28;20988;-83
2023/11/01 11:32:43;;;;;;;3.00;2.70;;;15.10;99.90;;;;;;5055362;28;20502;-83
2023/11/01 11:35:28;;;;;;;8.17;2.50;;;15.10;99.90;;;;;;5053989;28;20525;-79
2023/11/01 11:38:34;;;;;;;3.00;2.70;;;15.20;99.90;;;;;;5054631;28;20482;-79
2023/11/01 11:41:14;;;;;;;4.57;4.10;;;15.20;99.90;;;;;;5055292;28;20481;-83
2023/11/01 11:44:06;;;;;;;3.83;3.00;;;15.30;99.90;;;;;;5055681;28;20463;-80
2023/11/01 11:46:39;;;;;;;3.00;2.63;;;15.30;99.90;;;;;;5055880;28;20467;-80
2023/11/01 11:49:10;;;;;;;3.40;2.37;;;15.40;99.90;;;;;;5053372;28;20532;-79
2023/11/01 11:51:53;;;;;;;3.43;2.00;;;15.40;99.90;;;;;;5055894;28;20467;-82
2023/11/01 11:54:22;;;;;;;2.40;2.20;;;15.50;99.90;;;;;;5055011;28;20464;-80
2023/11/01 11:56:54;;;;;;;2.67;1.87;;;15.50;99.90;;;;;;5054495;28;20454;-83
2023/11/01 11:59:25;;;;;;;5.53;2.43;;;15.60;99.90;;;;;;5054189;28;20463;-83
2023/11/01 12:01:57;;;;;;;2.80;2.40;;;15.60;99.90;;;;;;5054264;28;20483;-83
2023/11/01 12:04:42;;;;;;;2.57;2.10;;;15.60;99.90;;;;;;5054750;28;20558;-79
2023/11/01 12:07:15;;;;;;;2.37;2.13;;;15.70;99.90;;;;;;5054095;28;20467;-80
2023/11/01 12:09:48;;;;;;;3.30;2.20;;;15.80;99.90;;;;;;5053072;28;20542;-79
2023/11/01 12:12:15;;;;;;;3.20;2.10;;;15.80;99.90;;;;;;5053686;28;20550;-83
2023/11/01 12:14:44;;;;;;;6.23;2.50;;;15.80;99.90;;;;;;5054913;28;20467;-79
2023/11/01 12:17:12;;;;;;;3.50;2.40;;;15.80;99.90;;;;;;5053920;28;20524;-79
2023/11/01 12:19:45;;;;;;;3.83;2.37;;;15.80;99.90;;;;;;5039661;28;20802;-80
2023/11/01 12:22:13;;;;;;;8.87;2.90;;;15.80;99.90;;;;;;5052747;28;20581;-82
2023/11/01 12:24:45;;;;;;;3.23;2.47;;;15.80;99.90;;;;;;5054395;28;20855;-79
2023/11/01 12:27:14;;;;;;;6.00;3.60;;;15.80;99.90;;;;;;5053303;28;20468;-79
2023/11/01 12:29:43;;;;;;;5.27;4.70;;;15.80;99.90;;;;;;5053590;28;20467;-79
2023/11/01 12:32:09;;;;;;;7.60;4.37;;;15.80;99.90;;;;;;5053309;28;20481;-80
2023/11/01 12:34:38;;;;;;;5.90;3.83;;;15.90;99.90;;;;;;5053499;28;20479;-79
2023/11/01 12:37:07;;;;;;;3.53;3.23;;;15.90;99.90;;;;;;5053810;28;20872;-82
2023/11/01 12:39:35;;;;;;;2.60;2.40;;;15.90;99.90;;;;;;5054952;28;20525;-82
2023/11/01 12:42:26;;;;;;;3.20;2.43;;;15.90;99.90;;;;;;5058957;28;20482;-82
2023/11/01 12:44:54;;;;;;;3.37;2.50;;;15.90;99.90;;;;;;5068526;28;20471;-82
2023/11/01 12:47:24;;;;;;;3.10;2.63;;;16.00;99.90;;;;;;5067483;28;20528;-82
2023/11/01 12:49:53;;;;;;;2.30;2.10;;;16.00;99.90;;;;;;5061720;28;20464;-80
2023/11/01 12:52:19;;;;;;;4.23;2.83;;;16.00;99.90;;;;;;5052405;28;20494;-80
2023/11/01 12:54:50;;;;;;;2.63;2.40;;;16.00;99.90;;;;;;5053417;28;20471;-80
2023/11/01 12:57:17;;;;;;;3.80;2.17;;;16.00;99.90;;;;;;5053970;28;20475;-83
2023/11/01 12:59:45;;;;;;;2.57;1.83;;;16.00;99.90;;;;;;5043662;28;20471;-78